sensor_id;sensor_type;location;lat;lon;timestamp;P1;durP1;ratioP1;P2;durP2;ratioP2
67108;SDS011;54027;50.786;7.058;2024-01-25T00:02:15;41.72;;;8.48;;
67108;SDS011;54027;50.786;7.058;2024-01-25T00:04:40;36.50;;;9.35;;
67108;SDS011;54027;50.786;7.058;2024-01-25T00:07:07;51.65;;;7.97;;
67108;SDS011;54027;50.786;7.058;2024-01-25T00:09:33;34.90;;;6.88;;
67108;SDS011;54027;50.786;7.058;2024-01-25T00:11:58;56.75;;;8.52;;
67108;SDS011;54027;50.786;7.058;2024-01-25T00:14:24;43.17;;;8.00;;
67108;SDS011;54027;50.786;7.058;2024-01-25T00:16:49;35.33;;;7.85;;
67108;SDS011;54027;50.786;7.058;2024-01-25T00:19:14;32.92;;;6.88;;
67108;SDS011;54027;50.786;7.058;2024-01-25T00:21:43;44.38;;;8.38;;
67108;SDS011;54027;50.786;7.058;2024-01-25T00:24:11;42.72;;;8.23;;
67108;SDS011;54027;50.786;7.058;2024-01-25T00:26:37;35.33;;;7.70;;
67108;SDS011;54027;50.786;7.058;2024-01-25T00:29:02;43.38;;;8.35;;
67108;SDS011;54027;50.786;7.058;2024-01-25T00:31:28;56.22;;;9.20;;
67108;SDS011;54027;50.786;7.058;2024-01-25T00:33:53;31.50;;;7.93;;
67108;SDS011;54027;50.786;7.058;2024-01-25T00:36:19;38.22;;;7.82;;
67108;SDS011;54027;50.786;7.058;2024-01-25T00:38:44;46.22;;;7.28;;
67108;SDS011;54027;50.786;7.058;2024-01-25T00:41:11;38.05;;;7.90;;
67108;SDS011;54027;50.786;7.058;2024-01-25T00:43:42;48.13;;;8.80;;
67108;SDS011;54027;50.786;7.058;2024-01-25T00:46:07;40.95;;;9.07;;
67108;SDS011;54027;50.786;7.058;2024-01-25T00:48:33;42.55;;;8.35;;
67108;SDS011;54027;50.786;7.058;2024-01-25T00:50:59;39.72;;;7.75;;
67108;SDS011;54027;50.786;7.058;2024-01-25T00:53:25;45.08;;;7.20;;
67108;SDS011;54027;50.786;7.058;2024-01-25T00:55:51;45.50;;;9.65;;
67108;SDS011;54027;50.786;7.058;2024-01-25T00:58:16;49.13;;;8.93;;
67108;SDS011;54027;50.786;7.058;2024-01-25T01:00:42;47.05;;;8.15;;
67108;SDS011;54027;50.786;7.058;2024-01-25T01:03:08;38.78;;;7.40;;
67108;SDS011;54027;50.786;7.058;2024-01-25T01:05:34;39.72;;;10.05;;
67108;SDS011;54027;50.786;7.058;2024-01-25T01:08:00;45.13;;;9.07;;
67108;SDS011;54027;50.786;7.058;2024-01-25T01:10:26;46.45;;;8.27;;
67108;SDS011;54027;50.786;7.058;2024-01-25T01:12:51;42.00;;;8.68;;
67108;SDS011;54027;50.786;7.058;2024-01-25T01:15:18;46.63;;;9.23;;
67108;SDS011;54027;50.786;7.058;2024-01-25T01:17:43;36.88;;;8.18;;
67108;SDS011;54027;50.786;7.058;2024-01-25T01:20:09;42.00;;;9.07;;
67108;SDS011;54027;50.786;7.058;2024-01-25T01:22:35;49.78;;;10.00;;
67108;SDS011;54027;50.786;7.058;2024-01-25T01:25:00;43.33;;;7.88;;
67108;SDS011;54027;50.786;7.058;2024-01-25T01:27:25;44.75;;;8.32;;
67108;SDS011;54027;50.786;7.058;2024-01-25T01:29:51;48.55;;;9.88;;
67108;SDS011;54027;50.786;7.058;2024-01-25T01:32:16;45.75;;;8.48;;
67108;SDS011;54027;50.786;7.058;2024-01-25T01:34:41;44.20;;;8.43;;
67108;SDS011;54027;50.786;7.058;2024-01-25T01:37:07;41.75;;;8.18;;
67108;SDS011;54027;50.786;7.058;2024-01-25T01:39:32;49.28;;;10.30;;
67108;SDS011;54027;50.786;7.058;2024-01-25T01:41:58;39.35;;;7.35;;
67108;SDS011;54027;50.786;7.058;2024-01-25T01:44:23;48.45;;;8.82;;
67108;SDS011;54027;50.786;7.058;2024-01-25T01:46:48;47.42;;;9.05;;
67108;SDS011;54027;50.786;7.058;2024-01-25T01:49:14;36.00;;;8.23;;
67108;SDS011;54027;50.786;7.058;2024-01-25T01:51:40;44.63;;;10.80;;
67108;SDS011;54027;50.786;7.058;2024-01-25T01:54:07;44.85;;;7.57;;
67108;SDS011;54027;50.786;7.058;2024-01-25T01:56:34;40.00;;;7.57;;
67108;SDS011;54027;50.786;7.058;2024-01-25T01:59:00;46.38;;;9.10;;
67108;SDS011;54027;50.786;7.058;2024-01-25T02:01:45;51.75;;;8.80;;
67108;SDS011;54027;50.786;7.058;2024-01-25T02:04:11;41.17;;;8.10;;
67108;SDS011;54027;50.786;7.058;2024-01-25T02:06:36;44.78;;;8.07;;
67108;SDS011;54027;50.786;7.058;2024-01-25T02:09:01;51.95;;;9.30;;
67108;SDS011;54027;50.786;7.058;2024-01-25T02:11:27;31.80;;;7.75;;
67108;SDS011;54027;50.786;7.058;2024-01-25T02:13:53;49.00;;;8.15;;
67108;SDS011;54027;50.786;7.058;2024-01-25T02:16:18;41.97;;;9.00;;
67108;SDS011;54027;50.786;7.058;2024-01-25T02:18:45;51.45;;;8.70;;
67108;SDS011;54027;50.786;7.058;2024-01-25T02:21:10;50.35;;;8.90;;
67108;SDS011;54027;50.786;7.058;2024-01-25T02:23:36;45.92;;;8.75;;
67108;SDS011;54027;50.786;7.058;2024-01-25T02:26:01;43.67;;;8.07;;
67108;SDS011;54027;50.786;7.058;2024-01-25T02:28:26;40.72;;;8.50;;
67108;SDS011;54027;50.786;7.058;2024-01-25T02:30:52;37.42;;;7.97;;
67108;SDS011;54027;50.786;7.058;2024-01-25T02:33:17;50.10;;;8.40;;
67108;SDS011;54027;50.786;7.058;2024-01-25T02:35:43;47.88;;;8.35;;
67108;SDS011;54027;50.786;7.058;2024-01-25T02:38:08;40.15;;;8.10;;
67108;SDS011;54027;50.786;7.058;2024-01-25T02:40:33;46.95;;;7.85;;
67108;SDS011;54027;50.786;7.058;2024-01-25T02:42:59;42.92;;;7.97;;
67108;SDS011;54027;50.786;7.058;2024-01-25T02:45:24;40.95;;;8.48;;
67108;SDS011;54027;50.786;7.058;2024-01-25T02:47:50;41.63;;;10.00;;
67108;SDS011;54027;50.786;7.058;2024-01-25T02:50:15;43.70;;;8.80;;
67108;SDS011;54027;50.786;7.058;2024-01-25T02:52:41;48.85;;;8.48;;
67108;SDS011;54027;50.786;7.058;2024-01-25T02:55:06;44.35;;;8.95;;
67108;SDS011;54027;50.786;7.058;2024-01-25T02:57:32;53.42;;;8.48;;
67108;SDS011;54027;50.786;7.058;2024-01-25T02:59:58;47.22;;;7.22;;
67108;SDS011;54027;50.786;7.058;2024-01-25T03:02:23;58.10;;;7.70;;
67108;SDS011;54027;50.786;7.058;2024-01-25T03:04:49;46.33;;;8.40;;
67108;SDS011;54027;50.786;7.058;2024-01-25T03:07:14;41.92;;;7.35;;
67108;SDS011;54027;50.786;7.058;2024-01-25T03:09:40;52.60;;;8.52;;
67108;SDS011;54027;50.786;7.058;2024-01-25T03:12:05;49.33;;;9.93;;
67108;SDS011;54027;50.786;7.058;2024-01-25T03:14:31;54.55;;;11.15;;
67108;SDS011;54027;50.786;7.058;2024-01-25T03:16:56;47.17;;;8.63;;
67108;SDS011;54027;50.786;7.058;2024-01-25T03:19:25;38.50;;;7.40;;
67108;SDS011;54027;50.786;7.058;2024-01-25T03:21:51;39.10;;;8.60;;
67108;SDS011;54027;50.786;7.058;2024-01-25T03:24:17;51.75;;;9.52;;
67108;SDS011;54027;50.786;7.058;2024-01-25T03:26:42;52.47;;;8.52;;
67108;SDS011;54027;50.786;7.058;2024-01-25T03:29:08;48.97;;;9.68;;
67108;SDS011;54027;50.786;7.058;2024-01-25T03:31:33;52.42;;;8.95;;
67108;SDS011;54027;50.786;7.058;2024-01-25T03:34:00;58.58;;;9.68;;
67108;SDS011;54027;50.786;7.058;2024-01-25T03:36:26;46.60;;;8.90;;
67108;SDS011;54027;50.786;7.058;2024-01-25T03:38:51;57.33;;;9.77;;
67108;SDS011;54027;50.786;7.058;2024-01-25T03:41:17;60.67;;;9.63;;
67108;SDS011;54027;50.786;7.058;2024-01-25T03:43:42;53.95;;;10.05;;
67108;SDS011;54027;50.786;7.058;2024-01-25T03:46:09;42.55;;;9.10;;
67108;SDS011;54027;50.786;7.058;2024-01-25T03:48:35;53.80;;;11.35;;
67108;SDS011;54027;50.786;7.058;2024-01-25T03:51:00;47.38;;;9.23;;
67108;SDS011;54027;50.786;7.058;2024-01-25T03:53:26;46.65;;;8.80;;
67108;SDS011;54027;50.786;7.058;2024-01-25T03:55:51;48.95;;;8.23;;
67108;SDS011;54027;50.786;7.058;2024-01-25T03:58:17;49.28;;;10.15;;
67108;SDS011;54027;50.786;7.058;2024-01-25T04:00:45;39.22;;;8.82;;
67108;SDS011;54027;50.786;7.058;2024-01-25T04:03:11;47.40;;;9.63;;
67108;SDS011;54027;50.786;7.058;2024-01-25T04:05:37;59.13;;;10.10;;
67108;SDS011;54027;50.786;7.058;2024-01-25T04:08:02;52.90;;;9.48;;
67108;SDS011;54027;50.786;7.058;2024-01-25T04:10:28;65.65;;;10.48;;
67108;SDS011;54027;50.786;7.058;2024-01-25T04:12:53;51.67;;;9.65;;
67108;SDS011;54027;50.786;7.058;2024-01-25T04:15:19;51.45;;;10.68;;
67108;SDS011;54027;50.786;7.058;2024-01-25T04:17:44;47.72;;;10.48;;
67108;SDS011;54027;50.786;7.058;2024-01-25T04:20:10;45.88;;;9.90;;
67108;SDS011;54027;50.786;7.058;2024-01-25T04:22:35;52.08;;;9.02;;
67108;SDS011;54027;50.786;7.058;2024-01-25T04:25:01;46.78;;;9.55;;
67108;SDS011;54027;50.786;7.058;2024-01-25T04:27:27;48.10;;;9.68;;
67108;SDS011;54027;50.786;7.058;2024-01-25T04:29:52;50.33;;;9.25;;
67108;SDS011;54027;50.786;7.058;2024-01-25T04:32:18;48.60;;;9.93;;
67108;SDS011;54027;50.786;7.058;2024-01-25T04:34:43;44.63;;;9.65;;
67108;SDS011;54027;50.786;7.058;2024-01-25T04:37:11;59.60;;;9.80;;
67108;SDS011;54027;50.786;7.058;2024-01-25T04:39:36;62.45;;;12.25;;
67108;SDS011;54027;50.786;7.058;2024-01-25T04:42:01;61.75;;;10.73;;
67108;SDS011;54027;50.786;7.058;2024-01-25T04:44:27;54.70;;;10.43;;
67108;SDS011;54027;50.786;7.058;2024-01-25T04:46:52;45.70;;;9.77;;
67108;SDS011;54027;50.786;7.058;2024-01-25T04:49:19;43.15;;;8.00;;
67108;SDS011;54027;50.786;7.058;2024-01-25T04:51:44;40.25;;;9.32;;
67108;SDS011;54027;50.786;7.058;2024-01-25T04:54:09;51.58;;;10.27;;
67108;SDS011;54027;50.786;7.058;2024-01-25T04:56:37;51.47;;;10.57;;
67108;SDS011;54027;50.786;7.058;2024-01-25T04:59:03;53.95;;;11.63;;
67108;SDS011;54027;50.786;7.058;2024-01-25T05:01:28;63.28;;;10.07;;
67108;SDS011;54027;50.786;7.058;2024-01-25T05:03:54;52.60;;;8.88;;
67108;SDS011;54027;50.786;7.058;2024-01-25T05:06:19;37.35;;;9.18;;
67108;SDS011;54027;50.786;7.058;2024-01-25T05:08:44;59.00;;;11.57;;
67108;SDS011;54027;50.786;7.058;2024-01-25T05:11:10;47.28;;;9.35;;
67108;SDS011;54027;50.786;7.058;2024-01-25T05:13:35;43.88;;;10.45;;
67108;SDS011;54027;50.786;7.058;2024-01-25T05:16:00;67.28;;;9.80;;
67108;SDS011;54027;50.786;7.058;2024-01-25T05:18:26;63.25;;;10.60;;
67108;SDS011;54027;50.786;7.058;2024-01-25T05:20:51;48.10;;;10.43;;
67108;SDS011;54027;50.786;7.058;2024-01-25T05:23:17;47.45;;;9.20;;
67108;SDS011;54027;50.786;7.058;2024-01-25T05:25:42;54.38;;;9.50;;
67108;SDS011;54027;50.786;7.058;2024-01-25T05:28:07;52.03;;;8.32;;
67108;SDS011;54027;50.786;7.058;2024-01-25T05:30:33;52.47;;;8.80;;
67108;SDS011;54027;50.786;7.058;2024-01-25T05:32:59;60.42;;;10.13;;
67108;SDS011;54027;50.786;7.058;2024-01-25T05:35:24;49.08;;;9.35;;
67108;SDS011;54027;50.786;7.058;2024-01-25T05:37:50;55.15;;;10.35;;
67108;SDS011;54027;50.786;7.058;2024-01-25T05:40:15;56.30;;;9.80;;
67108;SDS011;54027;50.786;7.058;2024-01-25T05:42:41;38.60;;;8.35;;
67108;SDS011;54027;50.786;7.058;2024-01-25T05:45:06;47.53;;;9.63;;
67108;SDS011;54027;50.786;7.058;2024-01-25T05:47:33;45.47;;;8.45;;
67108;SDS011;54027;50.786;7.058;2024-01-25T05:49:59;55.65;;;9.75;;
67108;SDS011;54027;50.786;7.058;2024-01-25T05:52:25;46.63;;;8.48;;
67108;SDS011;54027;50.786;7.058;2024-01-25T05:54:50;46.45;;;9.55;;
67108;SDS011;54027;50.786;7.058;2024-01-25T05:57:16;40.00;;;7.38;;
67108;SDS011;54027;50.786;7.058;2024-01-25T05:59:42;46.95;;;9.95;;
67108;SDS011;54027;50.786;7.058;2024-01-25T06:02:08;50.38;;;9.15;;
67108;SDS011;54027;50.786;7.058;2024-01-25T06:04:34;49.38;;;9.80;;
67108;SDS011;54027;50.786;7.058;2024-01-25T06:06:59;48.92;;;8.27;;
67108;SDS011;54027;50.786;7.058;2024-01-25T06:09:25;48.75;;;9.40;;
67108;SDS011;54027;50.786;7.058;2024-01-25T06:11:50;49.42;;;9.93;;
67108;SDS011;54027;50.786;7.058;2024-01-25T06:14:16;54.85;;;9.95;;
67108;SDS011;54027;50.786;7.058;2024-01-25T06:16:41;71.25;;;10.20;;
67108;SDS011;54027;50.786;7.058;2024-01-25T06:19:07;51.75;;;11.45;;
67108;SDS011;54027;50.786;7.058;2024-01-25T06:21:33;54.95;;;10.45;;
67108;SDS011;54027;50.786;7.058;2024-01-25T06:24:02;51.67;;;10.82;;
67108;SDS011;54027;50.786;7.058;2024-01-25T06:26:28;64.78;;;10.18;;
67108;SDS011;54027;50.786;7.058;2024-01-25T06:28:54;59.83;;;10.05;;
67108;SDS011;54027;50.786;7.058;2024-01-25T06:31:19;70.32;;;12.10;;
67108;SDS011;54027;50.786;7.058;2024-01-25T06:33:44;39.45;;;8.02;;
67108;SDS011;54027;50.786;7.058;2024-01-25T06:36:12;42.50;;;9.10;;
67108;SDS011;54027;50.786;7.058;2024-01-25T06:38:40;48.20;;;8.57;;
67108;SDS011;54027;50.786;7.058;2024-01-25T06:41:05;53.03;;;9.43;;
67108;SDS011;54027;50.786;7.058;2024-01-25T06:43:31;51.55;;;9.30;;
67108;SDS011;54027;50.786;7.058;2024-01-25T06:45:56;44.72;;;9.65;;
67108;SDS011;54027;50.786;7.058;2024-01-25T06:48:21;51.58;;;9.73;;
67108;SDS011;54027;50.786;7.058;2024-01-25T06:50:47;53.88;;;8.65;;
67108;SDS011;54027;50.786;7.058;2024-01-25T06:53:12;51.00;;;9.45;;
67108;SDS011;54027;50.786;7.058;2024-01-25T06:55:37;51.58;;;10.27;;
67108;SDS011;54027;50.786;7.058;2024-01-25T06:58:03;42.08;;;9.27;;
67108;SDS011;54027;50.786;7.058;2024-01-25T07:00:28;46.92;;;8.95;;
67108;SDS011;54027;50.786;7.058;2024-01-25T07:02:53;43.85;;;8.85;;
67108;SDS011;54027;50.786;7.058;2024-01-25T07:05:19;50.92;;;8.48;;
67108;SDS011;54027;50.786;7.058;2024-01-25T07:07:44;39.45;;;8.15;;
67108;SDS011;54027;50.786;7.058;2024-01-25T07:10:10;45.97;;;9.18;;
67108;SDS011;54027;50.786;7.058;2024-01-25T07:12:35;45.00;;;9.70;;
67108;SDS011;54027;50.786;7.058;2024-01-25T07:15:01;36.72;;;8.75;;
67108;SDS011;54027;50.786;7.058;2024-01-25T07:17:27;45.17;;;9.15;;
67108;SDS011;54027;50.786;7.058;2024-01-25T07:19:52;37.13;;;7.60;;
67108;SDS011;54027;50.786;7.058;2024-01-25T07:22:17;37.38;;;7.97;;
67108;SDS011;54027;50.786;7.058;2024-01-25T07:24:43;39.03;;;7.63;;
67108;SDS011;54027;50.786;7.058;2024-01-25T07:27:09;42.47;;;8.82;;
67108;SDS011;54027;50.786;7.058;2024-01-25T07:29:35;31.23;;;8.50;;
67108;SDS011;54027;50.786;7.058;2024-01-25T07:32:01;44.40;;;7.78;;
67108;SDS011;54027;50.786;7.058;2024-01-25T07:34:27;38.50;;;8.18;;
67108;SDS011;54027;50.786;7.058;2024-01-25T07:36:52;43.50;;;8.93;;
67108;SDS011;54027;50.786;7.058;2024-01-25T07:39:18;42.22;;;9.30;;
67108;SDS011;54027;50.786;7.058;2024-01-25T07:41:43;37.40;;;7.57;;
67108;SDS011;54027;50.786;7.058;2024-01-25T07:44:08;37.45;;;8.68;;
67108;SDS011;54027;50.786;7.058;2024-01-25T07:46:34;41.30;;;9.52;;
67108;SDS011;54027;50.786;7.058;2024-01-25T07:48:59;54.45;;;10.02;;
67108;SDS011;54027;50.786;7.058;2024-01-25T07:51:24;41.35;;;8.55;;
67108;SDS011;54027;50.786;7.058;2024-01-25T07:53:53;47.17;;;10.55;;
67108;SDS011;54027;50.786;7.058;2024-01-25T07:56:19;42.42;;;9.02;;
67108;SDS011;54027;50.786;7.058;2024-01-25T07:58:46;38.63;;;9.23;;
67108;SDS011;54027;50.786;7.058;2024-01-25T08:01:13;36.65;;;9.57;;
67108;SDS011;54027;50.786;7.058;2024-01-25T08:03:43;53.65;;;11.18;;
67108;SDS011;54027;50.786;7.058;2024-01-25T08:06:08;52.60;;;12.07;;
67108;SDS011;54027;50.786;7.058;2024-01-25T08:08:34;49.15;;;10.55;;
67108;SDS011;54027;50.786;7.058;2024-01-25T08:10:59;46.78;;;10.45;;
67108;SDS011;54027;50.786;7.058;2024-01-25T08:13:25;37.80;;;11.80;;
67108;SDS011;54027;50.786;7.058;2024-01-25T08:15:53;39.13;;;9.32;;
67108;SDS011;54027;50.786;7.058;2024-01-25T08:18:18;38.80;;;9.35;;
67108;SDS011;54027;50.786;7.058;2024-01-25T08:20:44;33.55;;;9.98;;
67108;SDS011;54027;50.786;7.058;2024-01-25T08:23:10;42.97;;;10.18;;
67108;SDS011;54027;50.786;7.058;2024-01-25T08:25:35;38.15;;;9.75;;
67108;SDS011;54027;50.786;7.058;2024-01-25T08:28:01;31.30;;;9.65;;
67108;SDS011;54027;50.786;7.058;2024-01-25T08:30:26;30.58;;;8.77;;
67108;SDS011;54027;50.786;7.058;2024-01-25T08:32:52;39.10;;;9.77;;
67108;SDS011;54027;50.786;7.058;2024-01-25T08:35:17;35.08;;;9.70;;
67108;SDS011;54027;50.786;7.058;2024-01-25T08:37:42;38.10;;;9.85;;
67108;SDS011;54027;50.786;7.058;2024-01-25T08:40:08;28.75;;;8.48;;
67108;SDS011;54027;50.786;7.058;2024-01-25T08:42:34;37.20;;;9.63;;
67108;SDS011;54027;50.786;7.058;2024-01-25T08:45:00;31.55;;;8.98;;
67108;SDS011;54027;50.786;7.058;2024-01-25T08:47:26;27.20;;;8.77;;
67108;SDS011;54027;50.786;7.058;2024-01-25T08:49:51;35.72;;;8.95;;
67108;SDS011;54027;50.786;7.058;2024-01-25T08:52:16;37.35;;;8.82;;
67108;SDS011;54027;50.786;7.058;2024-01-25T08:54:42;39.45;;;8.93;;
67108;SDS011;54027;50.786;7.058;2024-01-25T08:57:08;36.67;;;9.45;;
67108;SDS011;54027;50.786;7.058;2024-01-25T08:59:34;32.25;;;8.65;;
67108;SDS011;54027;50.786;7.058;2024-01-25T09:02:02;39.72;;;9.18;;
67108;SDS011;54027;50.786;7.058;2024-01-25T09:04:29;34.72;;;8.70;;
67108;SDS011;54027;50.786;7.058;2024-01-25T09:06:54;39.50;;;10.10;;
67108;SDS011;54027;50.786;7.058;2024-01-25T09:09:20;30.27;;;9.57;;
67108;SDS011;54027;50.786;7.058;2024-01-25T09:11:45;34.08;;;8.55;;
67108;SDS011;54027;50.786;7.058;2024-01-25T09:14:10;31.17;;;8.23;;
67108;SDS011;54027;50.786;7.058;2024-01-25T09:16:36;33.42;;;7.93;;
67108;SDS011;54027;50.786;7.058;2024-01-25T09:19:03;30.63;;;8.18;;
67108;SDS011;54027;50.786;7.058;2024-01-25T09:21:28;47.28;;;9.18;;
67108;SDS011;54027;50.786;7.058;2024-01-25T09:23:54;26.67;;;7.63;;
67108;SDS011;54027;50.786;7.058;2024-01-25T09:26:19;31.85;;;8.27;;
67108;SDS011;54027;50.786;7.058;2024-01-25T09:28:44;29.48;;;8.13;;
67108;SDS011;54027;50.786;7.058;2024-01-25T09:31:10;42.70;;;8.15;;
67108;SDS011;54027;50.786;7.058;2024-01-25T09:33:35;36.88;;;7.70;;
67108;SDS011;54027;50.786;7.058;2024-01-25T09:36:00;36.28;;;8.85;;
67108;SDS011;54027;50.786;7.058;2024-01-25T09:38:26;35.80;;;7.38;;
67108;SDS011;54027;50.786;7.058;2024-01-25T09:40:52;34.85;;;8.63;;
67108;SDS011;54027;50.786;7.058;2024-01-25T09:43:17;34.92;;;9.20;;
67108;SDS011;54027;50.786;7.058;2024-01-25T09:45:45;47.55;;;9.57;;
67108;SDS011;54027;50.786;7.058;2024-01-25T09:48:12;34.58;;;8.00;;
67108;SDS011;54027;50.786;7.058;2024-01-25T09:50:38;32.53;;;6.78;;
67108;SDS011;54027;50.786;7.058;2024-01-25T09:53:04;22.73;;;7.97;;
67108;SDS011;54027;50.786;7.058;2024-01-25T09:55:32;39.20;;;9.13;;
67108;SDS011;54027;50.786;7.058;2024-01-25T09:58:03;36.55;;;8.75;;
67108;SDS011;54027;50.786;7.058;2024-01-25T10:00:32;27.60;;;6.75;;
67108;SDS011;54027;50.786;7.058;2024-01-25T10:02:58;34.03;;;8.40;;
67108;SDS011;54027;50.786;7.058;2024-01-25T10:05:23;36.78;;;9.65;;
67108;SDS011;54027;50.786;7.058;2024-01-25T10:07:49;38.22;;;8.10;;
67108;SDS011;54027;50.786;7.058;2024-01-25T10:10:14;37.42;;;8.30;;
67108;SDS011;54027;50.786;7.058;2024-01-25T10:12:40;37.28;;;8.50;;
67108;SDS011;54027;50.786;7.058;2024-01-25T10:15:08;33.50;;;8.45;;
67108;SDS011;54027;50.786;7.058;2024-01-25T10:17:34;36.00;;;8.27;;
67108;SDS011;54027;50.786;7.058;2024-01-25T10:20:00;34.40;;;7.95;;
67108;SDS011;54027;50.786;7.058;2024-01-25T10:22:25;36.80;;;9.48;;
67108;SDS011;54027;50.786;7.058;2024-01-25T10:24:52;33.70;;;7.55;;
67108;SDS011;54027;50.786;7.058;2024-01-25T10:27:18;31.80;;;7.57;;
67108;SDS011;54027;50.786;7.058;2024-01-25T10:29:44;35.83;;;8.13;;
67108;SDS011;54027;50.786;7.058;2024-01-25T10:32:10;26.13;;;7.20;;
67108;SDS011;54027;50.786;7.058;2024-01-25T10:34:36;36.55;;;8.77;;
67108;SDS011;54027;50.786;7.058;2024-01-25T10:37:10;32.03;;;7.78;;
67108;SDS011;54027;50.786;7.058;2024-01-25T10:39:39;37.25;;;8.10;;
67108;SDS011;54027;50.786;7.058;2024-01-25T10:42:06;38.42;;;8.05;;
67108;SDS011;54027;50.786;7.058;2024-01-25T10:44:32;34.72;;;9.85;;
67108;SDS011;54027;50.786;7.058;2024-01-25T10:46:57;31.17;;;7.43;;
67108;SDS011;54027;50.786;7.058;2024-01-25T10:49:23;36.38;;;8.20;;
67108;SDS011;54027;50.786;7.058;2024-01-25T10:51:49;34.15;;;7.95;;
67108;SDS011;54027;50.786;7.058;2024-01-25T10:54:15;28.70;;;8.75;;
67108;SDS011;54027;50.786;7.058;2024-01-25T10:56:42;42.83;;;8.75;;
67108;SDS011;54027;50.786;7.058;2024-01-25T10:59:08;40.00;;;9.00;;
67108;SDS011;54027;50.786;7.058;2024-01-25T11:01:35;37.22;;;8.73;;
67108;SDS011;54027;50.786;7.058;2024-01-25T11:04:01;29.92;;;8.07;;
67108;SDS011;54027;50.786;7.058;2024-01-25T11:06:27;39.08;;;7.85;;
67108;SDS011;54027;50.786;7.058;2024-01-25T11:09:03;31.80;;;8.00;;
67108;SDS011;54027;50.786;7.058;2024-01-25T11:11:32;33.58;;;8.07;;
67108;SDS011;54027;50.786;7.058;2024-01-25T11:13:58;33.78;;;8.50;;
67108;SDS011;54027;50.786;7.058;2024-01-25T11:16:30;28.48;;;8.00;;
67108;SDS011;54027;50.786;7.058;2024-01-25T11:18:59;27.73;;;6.95;;
67108;SDS011;54027;50.786;7.058;2024-01-25T11:21:43;32.05;;;7.75;;
67108;SDS011;54027;50.786;7.058;2024-01-25T11:26:39;31.60;;;8.98;;
67108;SDS011;54027;50.786;7.058;2024-01-25T11:29:04;33.08;;;7.63;;
67108;SDS011;54027;50.786;7.058;2024-01-25T11:31:30;27.25;;;9.23;;
67108;SDS011;54027;50.786;7.058;2024-01-25T11:33:59;30.25;;;6.63;;
67108;SDS011;54027;50.786;7.058;2024-01-25T11:36:26;29.05;;;7.88;;
67108;SDS011;54027;50.786;7.058;2024-01-25T11:38:51;30.20;;;6.93;;
67108;SDS011;54027;50.786;7.058;2024-01-25T11:41:17;29.15;;;7.57;;
67108;SDS011;54027;50.786;7.058;2024-01-25T11:43:43;29.48;;;7.05;;
67108;SDS011;54027;50.786;7.058;2024-01-25T11:46:09;27.95;;;6.32;;
67108;SDS011;54027;50.786;7.058;2024-01-25T11:48:38;31.50;;;6.32;;
67108;SDS011;54027;50.786;7.058;2024-01-25T11:51:04;34.08;;;6.80;;
67108;SDS011;54027;50.786;7.058;2024-01-25T11:53:30;31.67;;;6.43;;
67108;SDS011;54027;50.786;7.058;2024-01-25T11:55:55;32.03;;;6.95;;
67108;SDS011;54027;50.786;7.058;2024-01-25T11:58:21;25.90;;;6.38;;
67108;SDS011;54027;50.786;7.058;2024-01-25T12:00:47;33.70;;;6.13;;
67108;SDS011;54027;50.786;7.058;2024-01-25T12:03:13;21.20;;;5.47;;
67108;SDS011;54027;50.786;7.058;2024-01-25T12:05:39;27.73;;;5.82;;
67108;SDS011;54027;50.786;7.058;2024-01-25T12:08:08;19.63;;;5.72;;
67108;SDS011;54027;50.786;7.058;2024-01-25T12:10:34;21.05;;;5.70;;
67108;SDS011;54027;50.786;7.058;2024-01-25T12:13:00;25.70;;;5.47;;
67108;SDS011;54027;50.786;7.058;2024-01-25T12:15:25;25.23;;;5.93;;
67108;SDS011;54027;50.786;7.058;2024-01-25T12:17:50;21.73;;;4.97;;
67108;SDS011;54027;50.786;7.058;2024-01-25T12:20:16;24.63;;;5.18;;
67108;SDS011;54027;50.786;7.058;2024-01-25T12:22:42;30.13;;;5.97;;
67108;SDS011;54027;50.786;7.058;2024-01-25T12:25:10;25.52;;;5.97;;
67108;SDS011;54027;50.786;7.058;2024-01-25T12:27:35;22.20;;;5.55;;
67108;SDS011;54027;50.786;7.058;2024-01-25T12:30:02;28.33;;;5.50;;
67108;SDS011;54027;50.786;7.058;2024-01-25T12:32:29;31.85;;;6.18;;
67108;SDS011;54027;50.786;7.058;2024-01-25T12:34:54;29.63;;;6.47;;
67108;SDS011;54027;50.786;7.058;2024-01-25T12:37:23;24.45;;;5.93;;
67108;SDS011;54027;50.786;7.058;2024-01-25T12:39:52;29.17;;;6.32;;
67108;SDS011;54027;50.786;7.058;2024-01-25T12:42:19;26.35;;;6.30;;
67108;SDS011;54027;50.786;7.058;2024-01-25T12:44:46;27.40;;;6.25;;
67108;SDS011;54027;50.786;7.058;2024-01-25T12:47:11;20.98;;;5.57;;
67108;SDS011;54027;50.786;7.058;2024-01-25T12:49:40;29.58;;;5.03;;
67108;SDS011;54027;50.786;7.058;2024-01-25T12:52:07;22.40;;;5.43;;
67108;SDS011;54027;50.786;7.058;2024-01-25T12:54:36;24.67;;;5.97;;
67108;SDS011;54027;50.786;7.058;2024-01-25T12:57:01;21.08;;;5.75;;
67108;SDS011;54027;50.786;7.058;2024-01-25T12:59:27;22.48;;;5.97;;
67108;SDS011;54027;50.786;7.058;2024-01-25T13:01:52;23.73;;;6.40;;
67108;SDS011;54027;50.786;7.058;2024-01-25T13:04:18;26.27;;;5.75;;
67108;SDS011;54027;50.786;7.058;2024-01-25T13:06:45;21.40;;;5.30;;
67108;SDS011;54027;50.786;7.058;2024-01-25T13:09:11;23.23;;;5.72;;
67108;SDS011;54027;50.786;7.058;2024-01-25T13:11:36;21.13;;;5.50;;
67108;SDS011;54027;50.786;7.058;2024-01-25T13:14:01;26.50;;;6.47;;
67108;SDS011;54027;50.786;7.058;2024-01-25T13:16:27;24.77;;;6.00;;
67108;SDS011;54027;50.786;7.058;2024-01-25T13:18:52;24.02;;;5.72;;
67108;SDS011;54027;50.786;7.058;2024-01-25T13:21:17;23.15;;;5.72;;
67108;SDS011;54027;50.786;7.058;2024-01-25T13:23:43;23.40;;;6.68;;
67108;SDS011;54027;50.786;7.058;2024-01-25T13:26:08;22.20;;;5.35;;
67108;SDS011;54027;50.786;7.058;2024-01-25T13:28:33;25.95;;;7.07;;
67108;SDS011;54027;50.786;7.058;2024-01-25T13:30:59;28.38;;;7.53;;
67108;SDS011;54027;50.786;7.058;2024-01-25T13:33:25;24.33;;;5.85;;
67108;SDS011;54027;50.786;7.058;2024-01-25T13:35:50;26.75;;;5.88;;
67108;SDS011;54027;50.786;7.058;2024-01-25T13:38:16;26.42;;;5.88;;
67108;SDS011;54027;50.786;7.058;2024-01-25T13:40:41;22.55;;;5.97;;
67108;SDS011;54027;50.786;7.058;2024-01-25T13:43:07;14.55;;;4.88;;
67108;SDS011;54027;50.786;7.058;2024-01-25T13:45:33;19.98;;;5.72;;
67108;SDS011;54027;50.786;7.058;2024-01-25T13:47:58;23.20;;;5.75;;
67108;SDS011;54027;50.786;7.058;2024-01-25T13:50:23;18.55;;;4.78;;
67108;SDS011;54027;50.786;7.058;2024-01-25T13:52:49;19.08;;;5.32;;
67108;SDS011;54027;50.786;7.058;2024-01-25T13:55:14;22.30;;;5.47;;
67108;SDS011;54027;50.786;7.058;2024-01-25T13:57:40;24.90;;;5.63;;
67108;SDS011;54027;50.786;7.058;2024-01-25T14:00:05;22.45;;;6.07;;
67108;SDS011;54027;50.786;7.058;2024-01-25T14:02:32;29.27;;;6.68;;
67108;SDS011;54027;50.786;7.058;2024-01-25T14:04:58;23.77;;;5.28;;
67108;SDS011;54027;50.786;7.058;2024-01-25T14:07:23;20.75;;;5.45;;
67108;SDS011;54027;50.786;7.058;2024-01-25T14:09:48;35.75;;;6.95;;
67108;SDS011;54027;50.786;7.058;2024-01-25T14:12:14;25.38;;;6.22;;
67108;SDS011;54027;50.786;7.058;2024-01-25T14:14:39;25.58;;;6.40;;
67108;SDS011;54027;50.786;7.058;2024-01-25T14:17:05;22.60;;;6.55;;
67108;SDS011;54027;50.786;7.058;2024-01-25T14:19:30;28.15;;;6.28;;
67108;SDS011;54027;50.786;7.058;2024-01-25T14:21:55;29.15;;;6.20;;
67108;SDS011;54027;50.786;7.058;2024-01-25T14:24:21;25.20;;;6.97;;
67108;SDS011;54027;50.786;7.058;2024-01-25T14:26:46;31.23;;;6.82;;
67108;SDS011;54027;50.786;7.058;2024-01-25T14:29:12;31.95;;;7.30;;